Photometre #142[Polarized_P] Lille AOT

File : 20200924_142.hum

24/09/2020,06:34:19,TEMP=11.5,BA=5.64,STAT.A=Abs.,ExtBa=12.55
24/09/2020,06:38:24,TEMP=11.6,BA=5.64,STAT.A=Abs.,ExtBa=12.52
24/09/2020,06:43:12,TEMP=11.8,BA=5.60,STAT.A=Abs.,ExtBa=12.52
24/09/2020,06:48:55,TEMP=12.1,BA=5.60,STAT.A=Abs.,ExtBa=12.52
24/09/2020,06:55:50,TEMP=12.5,BA=5.48,STAT.A=Abs.,ExtBa=12.51
24/09/2020,07:04:22,TEMP=12.8,BA=5.64,STAT.A=Abs.,ExtBa=12.51
24/09/2020,07:15:31,TEMP=13.1,BA=5.64,STAT.B=Abs.,ExtBa=12.50
24/09/2020,07:22:10,TEMP=13.5,BA=5.44,STAT.A=Abs.,ExtBa=12.41
24/09/2020,07:26:19,TEMP=13.5,BA=5.44,STAT.A=Abs.,ExtBa=12.46
24/09/2020,07:33:17,TEMP=13.5,BA=5.64,STAT.A=Abs.,ExtBa=12.45
24/09/2020,07:40:37,TEMP=13.8,BA=5.64,STAT.A=Abs.,ExtBa=12.47
24/09/2020,07:49:23,TEMP=14.1,BA=5.64,STAT.C=Abs.,ExtBa=12.47
24/09/2020,08:02:21,TEMP=15.8,BA=5.44,STAT.A=Abs.,ExtBa=12.38
24/09/2020,08:12:07,TEMP=14.9,BA=5.64,STAT.A=Abs.,ExtBa=12.44
24/09/2020,08:27:12,TEMP=15.3,BA=5.64,STAT.A=Abs.,ExtBa=12.47
24/09/2020,08:39:46,TEMP=15.8,BA=5.64,STAT.F
24/09/2020,08:54:44,TEMP=16.2,BA=5.44,STAT.D=Abs.,ExtBa=12.40
24/09/2020,09:09:44,TEMP=16.1,BA=5.64,STAT.D=Abs.,ExtBa=12.45
24/09/2020,09:25:02,TEMP=16.7,BA=5.64,STAT.D=Abs.,ExtBa=12.44
24/09/2020,09:39:46,TEMP=16.7,BA=5.64,STAT.F
24/09/2020,09:57:34,TEMP=17.6,BA=5.44,STAT.D=Abs.,ExtBa=12.44
24/09/2020,10:09:44,TEMP=17.4,BA=5.64,STAT.D=Abs.,ExtBa=12.45
24/09/2020,10:24:48,TEMP=16.5,BA=5.64,STAT.D=Abs.,ExtBa=12.46
24/09/2020,10:39:46,TEMP=16.1,BA=5.64,STAT.F
24/09/2020,10:54:45,TEMP=16.5,BA=5.64,STAT.D=Abs.,ExtBa=12.47
24/09/2020,11:09:44,TEMP=16.5,BA=5.64,STAT.D=Abs.,ExtBa=12.47
24/09/2020,11:11:07,TEMP=16.5,BA=5.52,STAT.b=Abs.
24/09/2020,11:24:27,TEMP=16.5,BA=5.64,STAT.h
24/09/2020,11:39:27,TEMP=16.5,BA=5.64,STAT.h
24/09/2020,11:54:27,TEMP=16.5,BA=5.64,STAT.h
24/09/2020,12:09:27,TEMP=16.5,BA=5.64,STAT.h
24/09/2020,12:24:27,TEMP=16.5,BA=5.64,STAT.h
24/09/2020,12:39:47,TEMP=13.1,BA=5.64,STAT.F
24/09/2020,12:54:44,TEMP=14.7,BA=5.64,STAT.D=Abs.,ExtBa=12.50
24/09/2020,13:10:03,TEMP=15.1,BA=5.64,STAT.D=Abs.,ExtBa=12.48
24/09/2020,13:24:46,TEMP=15.6,BA=5.64,STAT.D=Abs.,ExtBa=12.49
24/09/2020,13:39:47,TEMP=15.9,BA=5.64,STAT.F
24/09/2020,13:54:46,TEMP=16.1,BA=5.64,STAT.D=Abs.,ExtBa=12.49
24/09/2020,14:09:44,TEMP=16.5,BA=5.64,STAT.D=Abs.,ExtBa=12.49
24/09/2020,14:24:46,TEMP=16.8,BA=5.64,STAT.D=Abs.,ExtBa=12.47
24/09/2020,14:26:10,TEMP=16.8,BA=5.64,STAT.b=Abs.
24/09/2020,14:39:46,TEMP=17.1,BA=5.64,STAT.F
24/09/2020,14:52:19,TEMP=16.9,BA=5.64,STAT.A=Abs.,ExtBa=12.48
24/09/2020,15:07:45,TEMP=16.8,BA=5.64,STAT.A=Abs.,ExtBa=12.46
24/09/2020,15:19:48,TEMP=16.6,BA=5.64,STAT.A=Abs.,ExtBa=12.47
24/09/2020,15:30:09,TEMP=16.4,BA=5.56,STAT.C=Abs.,ExtBa=12.48
24/09/2020,15:31:34,TEMP=16.3,BA=5.56,STAT.b=Abs.
24/09/2020,15:38:56,TEMP=16.3,BA=5.56,STAT.A=Abs.,ExtBa=12.48
24/09/2020,15:46:32,TEMP=16.1,BA=5.48,STAT.A=Abs.,ExtBa=12.47
24/09/2020,15:53:11,TEMP=16.1,BA=5.64,STAT.A=Abs.,ExtBa=12.47
24/09/2020,15:59:04,TEMP=16.1,BA=5.64,STAT.A=Abs.,ExtBa=12.46
24/09/2020,16:04:16,TEMP=16.1,BA=5.48,STAT.B=Abs.,ExtBa=12.46
24/09/2020,16:15:11,TEMP=16.1,BA=5.64,STAT.A=Abs.,ExtBa=12.46
24/09/2020,16:23:44,TEMP=16.0,BA=5.64,STAT.A=Abs.,ExtBa=12.46
24/09/2020,16:30:36,TEMP=16.0,BA=5.64,STAT.A=Abs.,ExtBa=12.47
24/09/2020,16:36:20,TEMP=15.9,BA=5.64,STAT.A=Abs.,ExtBa=12.46
24/09/2020,16:41:07,TEMP=15.8,BA=5.64,STAT.A=Abs.,ExtBa=12.45
24/09/2020,16:45:54,TEMP=15.7,BA=5.64,STAT.A=Abs.,ExtBa=12.46